sensor_id;sensor_type;location;lat;lon;timestamp;P1;durP1;ratioP1;P2;durP2;ratioP2
26478;SDS011;14163;-26.142;27.992;2023-04-24T00:01:28;13.87;;;10.90;;
26478;SDS011;14163;-26.142;27.992;2023-04-24T00:03:57;11.70;;;10.50;;
26478;SDS011;14163;-26.142;27.992;2023-04-24T00:06:27;13.13;;;9.70;;
26478;SDS011;14163;-26.142;27.992;2023-04-24T00:08:59;16.07;;;9.77;;
26478;SDS011;14163;-26.142;27.992;2023-04-24T00:11:30;12.30;;;9.63;;
26478;SDS011;14163;-26.142;27.992;2023-04-24T00:13:59;11.03;;;8.70;;
26478;SDS011;14163;-26.142;27.992;2023-04-24T00:16:28;9.83;;;7.73;;
26478;SDS011;14163;-26.142;27.992;2023-04-24T00:18:57;9.23;;;8.00;;
26478;SDS011;14163;-26.142;27.992;2023-04-24T00:21:27;7.30;;;6.60;;
26478;SDS011;14163;-26.142;27.992;2023-04-24T00:23:58;7.77;;;6.10;;
26478;SDS011;14163;-26.142;27.992;2023-04-24T00:26:29;7.70;;;6.00;;
26478;SDS011;14163;-26.142;27.992;2023-04-24T00:28:59;6.90;;;5.87;;
26478;SDS011;14163;-26.142;27.992;2023-04-24T00:31:28;7.10;;;5.37;;
26478;SDS011;14163;-26.142;27.992;2023-04-24T00:34:00;5.87;;;5.10;;
26478;SDS011;14163;-26.142;27.992;2023-04-24T00:36:30;5.10;;;4.23;;
26478;SDS011;14163;-26.142;27.992;2023-04-24T00:38:59;5.13;;;4.63;;
26478;SDS011;14163;-26.142;27.992;2023-04-24T00:41:30;5.20;;;4.10;;
26478;SDS011;14163;-26.142;27.992;2023-04-24T00:44:00;6.40;;;4.37;;
26478;SDS011;14163;-26.142;27.992;2023-04-24T00:46:29;5.30;;;4.23;;
26478;SDS011;14163;-26.142;27.992;2023-04-24T00:48:59;4.10;;;3.40;;
26478;SDS011;14163;-26.142;27.992;2023-04-24T00:51:28;3.67;;;3.37;;
26478;SDS011;14163;-26.142;27.992;2023-04-24T00:53:58;4.00;;;3.60;;
26478;SDS011;14163;-26.142;27.992;2023-04-24T00:56:27;4.63;;;3.60;;
26478;SDS011;14163;-26.142;27.992;2023-04-24T00:58:58;3.30;;;3.00;;
26478;SDS011;14163;-26.142;27.992;2023-04-24T01:01:28;4.50;;;3.47;;
26478;SDS011;14163;-26.142;27.992;2023-04-24T01:03:58;3.20;;;2.90;;
26478;SDS011;14163;-26.142;27.992;2023-04-24T01:06:28;3.33;;;2.97;;
26478;SDS011;14163;-26.142;27.992;2023-04-24T01:08:58;3.00;;;2.70;;
26478;SDS011;14163;-26.142;27.992;2023-04-24T01:11:28;3.80;;;2.80;;
26478;SDS011;14163;-26.142;27.992;2023-04-24T01:13:59;3.73;;;2.50;;
26478;SDS011;14163;-26.142;27.992;2023-04-24T01:16:29;2.30;;;2.20;;
26478;SDS011;14163;-26.142;27.992;2023-04-24T01:18:58;3.60;;;2.40;;
26478;SDS011;14163;-26.142;27.992;2023-04-24T01:21:27;5.37;;;2.50;;
26478;SDS011;14163;-26.142;27.992;2023-04-24T01:24:04;3.13;;;2.70;;
26478;SDS011;14163;-26.142;27.992;2023-04-24T01:26:34;2.87;;;2.67;;
26478;SDS011;14163;-26.142;27.992;2023-04-24T01:29:03;2.70;;;2.40;;
26478;SDS011;14163;-26.142;27.992;2023-04-24T01:31:32;3.30;;;2.43;;
26478;SDS011;14163;-26.142;27.992;2023-04-24T01:34:02;2.20;;;2.10;;
26478;SDS011;14163;-26.142;27.992;2023-04-24T01:36:32;3.90;;;2.37;;
26478;SDS011;14163;-26.142;27.992;2023-04-24T01:39:03;2.47;;;2.27;;
26478;SDS011;14163;-26.142;27.992;2023-04-24T01:41:33;3.20;;;2.50;;
26478;SDS011;14163;-26.142;27.992;2023-04-24T01:44:02;2.63;;;2.43;;
26478;SDS011;14163;-26.142;27.992;2023-04-24T01:46:31;3.10;;;2.70;;
26478;SDS011;14163;-26.142;27.992;2023-04-24T01:49:02;2.87;;;2.63;;
26478;SDS011;14163;-26.142;27.992;2023-04-24T01:51:31;2.63;;;2.43;;
26478;SDS011;14163;-26.142;27.992;2023-04-24T01:54:00;2.60;;;2.40;;
26478;SDS011;14163;-26.142;27.992;2023-04-24T01:56:33;2.53;;;2.33;;
26478;SDS011;14163;-26.142;27.992;2023-04-24T01:59:02;3.40;;;2.93;;
26478;SDS011;14163;-26.142;27.992;2023-04-24T02:01:35;3.10;;;2.83;;
26478;SDS011;14163;-26.142;27.992;2023-04-24T02:04:04;3.47;;;2.80;;
26478;SDS011;14163;-26.142;27.992;2023-04-24T02:06:34;2.70;;;2.50;;
26478;SDS011;14163;-26.142;27.992;2023-04-24T02:09:05;4.17;;;3.10;;
26478;SDS011;14163;-26.142;27.992;2023-04-24T02:11:36;2.97;;;2.77;;
26478;SDS011;14163;-26.142;27.992;2023-04-24T02:14:05;3.30;;;2.60;;
26478;SDS011;14163;-26.142;27.992;2023-04-24T02:16:34;3.73;;;2.43;;
26478;SDS011;14163;-26.142;27.992;2023-04-24T02:19:03;3.30;;;2.50;;
26478;SDS011;14163;-26.142;27.992;2023-04-24T02:21:33;2.50;;;2.40;;
26478;SDS011;14163;-26.142;27.992;2023-04-24T02:24:02;5.73;;;2.47;;
26478;SDS011;14163;-26.142;27.992;2023-04-24T02:26:33;3.67;;;3.10;;
26478;SDS011;14163;-26.142;27.992;2023-04-24T02:29:02;2.53;;;2.33;;
26478;SDS011;14163;-26.142;27.992;2023-04-24T02:31:31;3.53;;;2.87;;
26478;SDS011;14163;-26.142;27.992;2023-04-24T02:34:00;2.37;;;2.27;;
26478;SDS011;14163;-26.142;27.992;2023-04-24T02:36:29;4.17;;;3.13;;
26478;SDS011;14163;-26.142;27.992;2023-04-24T02:38:58;8.27;;;2.97;;
26478;SDS011;14163;-26.142;27.992;2023-04-24T02:41:31;3.37;;;2.93;;
26478;SDS011;14163;-26.142;27.992;2023-04-24T02:44:00;5.50;;;3.00;;
26478;SDS011;14163;-26.142;27.992;2023-04-24T02:46:29;4.53;;;3.50;;
26478;SDS011;14163;-26.142;27.992;2023-04-24T02:48:58;5.20;;;3.70;;
26478;SDS011;14163;-26.142;27.992;2023-04-24T02:51:27;7.20;;;4.17;;
26478;SDS011;14163;-26.142;27.992;2023-04-24T02:53:56;7.37;;;4.47;;
26478;SDS011;14163;-26.142;27.992;2023-04-24T02:56:26;7.40;;;4.30;;
26478;SDS011;14163;-26.142;27.992;2023-04-24T02:58:56;12.90;;;4.67;;
26478;SDS011;14163;-26.142;27.992;2023-04-24T03:01:26;7.60;;;5.03;;
26478;SDS011;14163;-26.142;27.992;2023-04-24T03:03:55;7.10;;;5.47;;
26478;SDS011;14163;-26.142;27.992;2023-04-24T03:06:24;6.50;;;4.67;;
26478;SDS011;14163;-26.142;27.992;2023-04-24T03:08:54;8.40;;;6.40;;
26478;SDS011;14163;-26.142;27.992;2023-04-24T03:11:23;9.83;;;6.37;;
26478;SDS011;14163;-26.142;27.992;2023-04-24T03:13:52;10.43;;;6.07;;
26478;SDS011;14163;-26.142;27.992;2023-04-24T03:16:23;8.33;;;5.97;;
26478;SDS011;14163;-26.142;27.992;2023-04-24T03:18:52;9.30;;;5.87;;
26478;SDS011;14163;-26.142;27.992;2023-04-24T03:21:22;7.87;;;6.07;;
26478;SDS011;14163;-26.142;27.992;2023-04-24T03:23:52;9.40;;;6.40;;
26478;SDS011;14163;-26.142;27.992;2023-04-24T03:26:21;10.23;;;6.10;;
26478;SDS011;14163;-26.142;27.992;2023-04-24T03:28:50;8.33;;;6.53;;
26478;SDS011;14163;-26.142;27.992;2023-04-24T03:31:19;8.47;;;6.17;;
26478;SDS011;14163;-26.142;27.992;2023-04-24T03:33:50;9.87;;;6.30;;
26478;SDS011;14163;-26.142;27.992;2023-04-24T03:36:20;7.60;;;6.50;;
26478;SDS011;14163;-26.142;27.992;2023-04-24T03:38:49;22.43;;;7.00;;
26478;SDS011;14163;-26.142;27.992;2023-04-24T03:41:18;7.93;;;5.83;;
26478;SDS011;14163;-26.142;27.992;2023-04-24T03:43:48;7.90;;;5.23;;
26478;SDS011;14163;-26.142;27.992;2023-04-24T03:46:18;12.37;;;6.00;;
26478;SDS011;14163;-26.142;27.992;2023-04-24T03:48:47;6.57;;;5.20;;
26478;SDS011;14163;-26.142;27.992;2023-04-24T03:51:18;5.17;;;4.73;;
26478;SDS011;14163;-26.142;27.992;2023-04-24T03:53:48;5.07;;;4.57;;
26478;SDS011;14163;-26.142;27.992;2023-04-24T03:56:17;6.90;;;4.87;;
26478;SDS011;14163;-26.142;27.992;2023-04-24T03:58:47;8.13;;;4.53;;
26478;SDS011;14163;-26.142;27.992;2023-04-24T04:01:16;5.20;;;4.17;;
26478;SDS011;14163;-26.142;27.992;2023-04-24T04:03:46;4.20;;;3.90;;
26478;SDS011;14163;-26.142;27.992;2023-04-24T04:06:17;5.60;;;3.73;;
26478;SDS011;14163;-26.142;27.992;2023-04-24T04:08:47;4.13;;;3.77;;
26478;SDS011;14163;-26.142;27.992;2023-04-24T04:11:16;3.60;;;3.30;;
26478;SDS011;14163;-26.142;27.992;2023-04-24T04:13:45;3.80;;;3.40;;
26478;SDS011;14163;-26.142;27.992;2023-04-24T04:16:15;4.00;;;3.60;;
26478;SDS011;14163;-26.142;27.992;2023-04-24T04:18:44;4.00;;;3.43;;
26478;SDS011;14163;-26.142;27.992;2023-04-24T04:21:13;4.53;;;3.40;;
26478;SDS011;14163;-26.142;27.992;2023-04-24T04:23:44;6.37;;;3.23;;
26478;SDS011;14163;-26.142;27.992;2023-04-24T04:26:13;5.37;;;3.00;;
26478;SDS011;14163;-26.142;27.992;2023-04-24T04:28:44;6.00;;;3.27;;
26478;SDS011;14163;-26.142;27.992;2023-04-24T04:31:14;5.43;;;3.77;;
26478;SDS011;14163;-26.142;27.992;2023-04-24T04:33:43;9.90;;;3.57;;
26478;SDS011;14163;-26.142;27.992;2023-04-24T04:36:13;3.50;;;2.70;;
26478;SDS011;14163;-26.142;27.992;2023-04-24T04:38:46;3.10;;;2.80;;
26478;SDS011;14163;-26.142;27.992;2023-04-24T04:41:15;7.50;;;2.80;;
26478;SDS011;14163;-26.142;27.992;2023-04-24T04:43:44;5.70;;;2.83;;
26478;SDS011;14163;-26.142;27.992;2023-04-24T04:46:13;4.40;;;2.67;;
26478;SDS011;14163;-26.142;27.992;2023-04-24T04:48:43;8.30;;;3.10;;
26478;SDS011;14163;-26.142;27.992;2023-04-24T04:51:12;8.17;;;2.77;;
26478;SDS011;14163;-26.142;27.992;2023-04-24T04:53:41;7.43;;;2.50;;
26478;SDS011;14163;-26.142;27.992;2023-04-24T04:56:12;4.13;;;2.73;;
26478;SDS011;14163;-26.142;27.992;2023-04-24T04:58:41;6.00;;;2.87;;
26478;SDS011;14163;-26.142;27.992;2023-04-24T05:01:10;6.53;;;3.17;;
26478;SDS011;14163;-26.142;27.992;2023-04-24T05:03:39;9.63;;;2.97;;
26478;SDS011;14163;-26.142;27.992;2023-04-24T05:06:09;11.10;;;3.67;;
26478;SDS011;14163;-26.142;27.992;2023-04-24T05:08:38;14.93;;;3.50;;
26478;SDS011;14163;-26.142;27.992;2023-04-24T05:11:07;8.83;;;3.03;;
26478;SDS011;14163;-26.142;27.992;2023-04-24T05:13:39;9.17;;;3.60;;
26478;SDS011;14163;-26.142;27.992;2023-04-24T05:16:09;8.27;;;4.03;;
26478;SDS011;14163;-26.142;27.992;2023-04-24T05:18:39;11.67;;;3.83;;
26478;SDS011;14163;-26.142;27.992;2023-04-24T05:21:09;7.23;;;3.30;;
26478;SDS011;14163;-26.142;27.992;2023-04-24T05:23:38;15.50;;;4.63;;
26478;SDS011;14163;-26.142;27.992;2023-04-24T05:26:08;8.73;;;3.37;;
26478;SDS011;14163;-26.142;27.992;2023-04-24T05:28:39;15.60;;;3.40;;
26478;SDS011;14163;-26.142;27.992;2023-04-24T05:31:08;12.30;;;3.03;;
26478;SDS011;14163;-26.142;27.992;2023-04-24T05:33:38;38.00;;;6.80;;
26478;SDS011;14163;-26.142;27.992;2023-04-24T05:36:07;21.80;;;5.20;;
26478;SDS011;14163;-26.142;27.992;2023-04-24T05:38:36;25.03;;;5.90;;
26478;SDS011;14163;-26.142;27.992;2023-04-24T05:41:05;27.67;;;6.13;;
26478;SDS011;14163;-26.142;27.992;2023-04-24T05:43:35;16.20;;;7.67;;
26478;SDS011;14163;-26.142;27.992;2023-04-24T05:46:06;25.07;;;6.07;;
26478;SDS011;14163;-26.142;27.992;2023-04-24T05:48:35;20.53;;;5.90;;
26478;SDS011;14163;-26.142;27.992;2023-04-24T05:51:05;18.93;;;5.47;;
26478;SDS011;14163;-26.142;27.992;2023-04-24T05:53:34;12.13;;;5.80;;
26478;SDS011;14163;-26.142;27.992;2023-04-24T05:56:04;14.23;;;6.30;;
26478;SDS011;14163;-26.142;27.992;2023-04-24T05:58:34;7.07;;;5.50;;
26478;SDS011;14163;-26.142;27.992;2023-04-24T08:04:23;3.90;;;3.60;;
26478;SDS011;14163;-26.142;27.992;2023-04-24T08:06:53;3.92;;;3.60;;
26478;SDS011;14163;-26.142;27.992;2023-04-24T08:09:22;6.00;;;5.50;;
26478;SDS011;14163;-26.142;27.992;2023-04-24T08:11:52;6.53;;;5.90;;
26478;SDS011;14163;-26.142;27.992;2023-04-24T08:14:21;6.70;;;6.10;;
26478;SDS011;14163;-26.142;27.992;2023-04-24T08:16:51;6.20;;;5.60;;
26478;SDS011;14163;-26.142;27.992;2023-04-24T08:19:24;7.27;;;6.53;;
26478;SDS011;14163;-26.142;27.992;2023-04-24T08:21:54;6.10;;;5.60;;
26478;SDS011;14163;-26.142;27.992;2023-04-24T08:24:23;12.13;;;7.07;;
26478;SDS011;14163;-26.142;27.992;2023-04-24T08:26:52;10.17;;;5.97;;
26478;SDS011;14163;-26.142;27.992;2023-04-24T08:29:23;7.37;;;6.70;;
26478;SDS011;14163;-26.142;27.992;2023-04-24T08:31:53;6.47;;;5.90;;
26478;SDS011;14163;-26.142;27.992;2023-04-24T08:34:24;6.80;;;6.27;;
26478;SDS011;14163;-26.142;27.992;2023-04-24T08:36:53;7.53;;;5.60;;
26478;SDS011;14163;-26.142;27.992;2023-04-24T08:39:23;7.80;;;6.40;;
26478;SDS011;14163;-26.142;27.992;2023-04-24T08:41:52;9.33;;;7.33;;
26478;SDS011;14163;-26.142;27.992;2023-04-24T08:44:24;15.30;;;8.00;;
26478;SDS011;14163;-26.142;27.992;2023-04-24T08:46:55;8.50;;;7.20;;
26478;SDS011;14163;-26.142;27.992;2023-04-24T08:49:26;10.67;;;8.43;;
26478;SDS011;14163;-26.142;27.992;2023-04-24T08:51:56;14.43;;;10.80;;
26478;SDS011;14163;-26.142;27.992;2023-04-24T08:54:25;20.40;;;11.30;;
26478;SDS011;14163;-26.142;27.992;2023-04-24T08:56:55;15.20;;;10.60;;
26478;SDS011;14163;-26.142;27.992;2023-04-24T08:59:29;14.77;;;10.90;;
26478;SDS011;14163;-26.142;27.992;2023-04-24T09:01:59;11.53;;;9.13;;
26478;SDS011;14163;-26.142;27.992;2023-04-24T09:04:32;12.60;;;9.87;;
26478;SDS011;14163;-26.142;27.992;2023-04-24T09:07:03;14.13;;;10.60;;
26478;SDS011;14163;-26.142;27.992;2023-04-24T09:09:34;17.03;;;10.30;;
26478;SDS011;14163;-26.142;27.992;2023-04-24T09:12:06;17.03;;;10.90;;
26478;SDS011;14163;-26.142;27.992;2023-04-24T09:14:35;18.90;;;12.27;;
26478;SDS011;14163;-26.142;27.992;2023-04-24T09:17:09;14.70;;;11.60;;
26478;SDS011;14163;-26.142;27.992;2023-04-24T09:19:40;12.10;;;9.57;;
26478;SDS011;14163;-26.142;27.992;2023-04-24T09:22:09;12.70;;;11.37;;
26478;SDS011;14163;-26.142;27.992;2023-04-24T09:24:39;14.80;;;11.57;;
26478;SDS011;14163;-26.142;27.992;2023-04-24T09:27:10;12.00;;;10.70;;
26478;SDS011;14163;-26.142;27.992;2023-04-24T09:29:46;12.83;;;10.40;;
26478;SDS011;14163;-26.142;27.992;2023-04-24T09:32:23;17.87;;;16.00;;
26478;SDS011;14163;-26.142;27.992;2023-04-24T09:37:40;9.83;;;8.83;;
26478;SDS011;14163;-26.142;27.992;2023-04-24T09:40:14;10.53;;;8.43;;
26478;SDS011;14163;-26.142;27.992;2023-04-24T09:42:45;16.57;;;9.50;;
26478;SDS011;14163;-26.142;27.992;2023-04-24T09:45:19;12.30;;;9.93;;
26478;SDS011;14163;-26.142;27.992;2023-04-24T09:47:51;9.80;;;7.80;;
26478;SDS011;14163;-26.142;27.992;2023-04-24T09:50:24;10.90;;;8.40;;
26478;SDS011;14163;-26.142;27.992;2023-04-24T09:52:57;9.57;;;8.57;;
26478;SDS011;14163;-26.142;27.992;2023-04-24T09:55:26;9.87;;;8.10;;
26478;SDS011;14163;-26.142;27.992;2023-04-24T09:57:59;10.63;;;9.50;;
26478;SDS011;14163;-26.142;27.992;2023-04-24T10:03:03;10.70;;;9.63;;
26478;SDS011;14163;-26.142;27.992;2023-04-24T10:05:36;7.30;;;6.70;;
26478;SDS011;14163;-26.142;27.992;2023-04-24T10:08:07;8.00;;;7.30;;
26478;SDS011;14163;-26.142;27.992;2023-04-24T10:10:38;9.17;;;8.27;;
26478;SDS011;14163;-26.142;27.992;2023-04-24T10:13:09;9.73;;;8.17;;
26478;SDS011;14163;-26.142;27.992;2023-04-24T10:15:39;7.57;;;6.97;;
26478;SDS011;14163;-26.142;27.992;2023-04-24T10:18:09;7.93;;;7.23;;
26478;SDS011;14163;-26.142;27.992;2023-04-24T10:20:40;10.60;;;9.70;;
26478;SDS011;14163;-26.142;27.992;2023-04-24T10:23:10;11.27;;;10.17;;
26478;SDS011;14163;-26.142;27.992;2023-04-24T10:25:39;11.73;;;9.97;;
26478;SDS011;14163;-26.142;27.992;2023-04-24T10:28:09;11.43;;;9.63;;
26478;SDS011;14163;-26.142;27.992;2023-04-24T10:30:39;10.60;;;9.30;;
26478;SDS011;14163;-26.142;27.992;2023-04-24T10:33:12;11.30;;;9.57;;
26478;SDS011;14163;-26.142;27.992;2023-04-24T10:35:45;12.73;;;10.17;;
26478;SDS011;14163;-26.142;27.992;2023-04-24T10:38:16;11.00;;;9.87;;
26478;SDS011;14163;-26.142;27.992;2023-04-24T10:40:51;12.57;;;11.33;;
26478;SDS011;14163;-26.142;27.992;2023-04-24T10:43:26;12.30;;;11.20;;
26478;SDS011;14163;-26.142;27.992;2023-04-24T10:46:01;12.60;;;11.37;;
26478;SDS011;14163;-26.142;27.992;2023-04-24T10:48:31;10.17;;;9.23;;
26478;SDS011;14163;-26.142;27.992;2023-04-24T10:51:02;9.23;;;7.90;;
26478;SDS011;14163;-26.142;27.992;2023-04-24T10:53:32;7.07;;;6.47;;
26478;SDS011;14163;-26.142;27.992;2023-04-24T10:56:04;4.93;;;4.57;;
26478;SDS011;14163;-26.142;27.992;2023-04-24T10:58:41;5.50;;;5.10;;
26478;SDS011;14163;-26.142;27.992;2023-04-24T11:01:23;7.10;;;5.87;;
26478;SDS011;14163;-26.142;27.992;2023-04-24T11:03:54;5.97;;;5.47;;
26478;SDS011;14163;-26.142;27.992;2023-04-24T11:06:31;6.80;;;6.20;;
26478;SDS011;14163;-26.142;27.992;2023-04-24T11:09:02;6.60;;;6.20;;
26478;SDS011;14163;-26.142;27.992;2023-04-24T11:11:34;7.93;;;5.57;;
26478;SDS011;14163;-26.142;27.992;2023-04-24T11:14:06;7.30;;;6.60;;
26478;SDS011;14163;-26.142;27.992;2023-04-24T11:16:44;9.10;;;6.43;;
26478;SDS011;14163;-26.142;27.992;2023-04-24T11:19:23;7.67;;;6.97;;
26478;SDS011;14163;-26.142;27.992;2023-04-24T11:22:00;7.97;;;7.17;;
26478;SDS011;14163;-26.142;27.992;2023-04-24T11:24:31;6.90;;;6.27;;
26478;SDS011;14163;-26.142;27.992;2023-04-24T11:27:07;7.70;;;6.80;;
26478;SDS011;14163;-26.142;27.992;2023-04-24T11:29:41;7.37;;;6.83;;
26478;SDS011;14163;-26.142;27.992;2023-04-24T11:32:18;7.97;;;7.13;;
26478;SDS011;14163;-26.142;27.992;2023-04-24T11:34:52;9.70;;;6.30;;
26478;SDS011;14163;-26.142;27.992;2023-04-24T11:37:24;9.67;;;7.50;;
26478;SDS011;14163;-26.142;27.992;2023-04-24T11:39:54;8.63;;;6.83;;
26478;SDS011;14163;-26.142;27.992;2023-04-24T11:42:25;7.50;;;6.90;;
26478;SDS011;14163;-26.142;27.992;2023-04-24T11:44:54;8.40;;;7.60;;
26478;SDS011;14163;-26.142;27.992;2023-04-24T11:47:29;6.80;;;6.20;;
26478;SDS011;14163;-26.142;27.992;2023-04-24T11:50:00;9.03;;;7.90;;
26478;SDS011;14163;-26.142;27.992;2023-04-24T11:52:32;7.93;;;6.80;;
26478;SDS011;14163;-26.142;27.992;2023-04-24T11:55:06;9.47;;;7.70;;
26478;SDS011;14163;-26.142;27.992;2023-04-24T11:57:38;8.97;;;8.03;;
26478;SDS011;14163;-26.142;27.992;2023-04-24T12:00:15;10.77;;;9.70;;
26478;SDS011;14163;-26.142;27.992;2023-04-24T12:02:46;10.43;;;9.40;;
26478;SDS011;14163;-26.142;27.992;2023-04-24T12:05:19;12.30;;;9.60;;
26478;SDS011;14163;-26.142;27.992;2023-04-24T12:07:50;9.97;;;8.97;;
26478;SDS011;14163;-26.142;27.992;2023-04-24T12:10:20;10.00;;;9.00;;
26478;SDS011;14163;-26.142;27.992;2023-04-24T12:12:50;10.70;;;9.60;;
26478;SDS011;14163;-26.142;27.992;2023-04-24T12:15:20;11.83;;;10.73;;
26478;SDS011;14163;-26.142;27.992;2023-04-24T12:17:50;12.90;;;11.53;;
26478;SDS011;14163;-26.142;27.992;2023-04-24T12:20:23;13.90;;;12.50;;
26478;SDS011;14163;-26.142;27.992;2023-04-24T12:22:57;18.13;;;14.67;;
26478;SDS011;14163;-26.142;27.992;2023-04-24T12:25:28;20.50;;;16.37;;
26478;SDS011;14163;-26.142;27.992;2023-04-24T12:28:08;17.47;;;15.67;;
26478;SDS011;14163;-26.142;27.992;2023-04-24T12:30:39;23.73;;;14.03;;
26478;SDS011;14163;-26.142;27.992;2023-04-24T12:33:17;14.93;;;13.43;;
26478;SDS011;14163;-26.142;27.992;2023-04-24T12:35:48;14.00;;;12.63;;
26478;SDS011;14163;-26.142;27.992;2023-04-24T12:41:06;15.73;;;13.27;;
26478;SDS011;14163;-26.142;27.992;2023-04-24T12:43:36;13.63;;;11.83;;
26478;SDS011;14163;-26.142;27.992;2023-04-24T12:46:05;11.93;;;10.20;;
26478;SDS011;14163;-26.142;27.992;2023-04-24T12:48:34;10.37;;;9.47;;
26478;SDS011;14163;-26.142;27.992;2023-04-24T12:51:04;12.73;;;11.47;;
26478;SDS011;14163;-26.142;27.992;2023-04-24T12:53:36;13.10;;;11.00;;
26478;SDS011;14163;-26.142;27.992;2023-04-24T12:56:05;10.63;;;9.70;;
26478;SDS011;14163;-26.142;27.992;2023-04-24T12:58:34;10.50;;;9.30;;
26478;SDS011;14163;-26.142;27.992;2023-04-24T13:01:03;11.70;;;10.60;;
26478;SDS011;14163;-26.142;27.992;2023-04-24T13:03:32;13.13;;;10.87;;
26478;SDS011;14163;-26.142;27.992;2023-04-24T13:06:02;13.90;;;12.70;;
26478;SDS011;14163;-26.142;27.992;2023-04-24T13:08:32;16.23;;;14.63;;
26478;SDS011;14163;-26.142;27.992;2023-04-24T13:11:08;29.77;;;23.50;;
26478;SDS011;14163;-26.142;27.992;2023-04-24T13:13:37;26.90;;;24.10;;
26478;SDS011;14163;-26.142;27.992;2023-04-24T13:16:08;23.93;;;21.43;;
26478;SDS011;14163;-26.142;27.992;2023-04-24T13:18:38;16.60;;;14.77;;
26478;SDS011;14163;-26.142;27.992;2023-04-24T13:21:08;13.97;;;12.47;;
26478;SDS011;14163;-26.142;27.992;2023-04-24T13:23:37;15.43;;;12.50;;
26478;SDS011;14163;-26.142;27.992;2023-04-24T13:26:08;12.70;;;11.50;;
26478;SDS011;14163;-26.142;27.992;2023-04-24T13:28:38;16.40;;;12.70;;
26478;SDS011;14163;-26.142;27.992;2023-04-24T13:31:08;32.93;;;14.57;;
26478;SDS011;14163;-26.142;27.992;2023-04-24T13:33:38;17.20;;;15.40;;
26478;SDS011;14163;-26.142;27.992;2023-04-24T13:36:07;19.40;;;15.40;;
26478;SDS011;14163;-26.142;27.992;2023-04-24T13:38:36;21.33;;;15.20;;
26478;SDS011;14163;-26.142;27.992;2023-04-24T13:41:06;16.67;;;14.97;;
26478;SDS011;14163;-26.142;27.992;2023-04-24T13:43:37;16.43;;;14.83;;
26478;SDS011;14163;-26.142;27.992;2023-04-24T13:46:07;17.83;;;15.37;;
26478;SDS011;14163;-26.142;27.992;2023-04-24T13:48:36;15.90;;;14.23;;
26478;SDS011;14163;-26.142;27.992;2023-04-24T13:51:05;17.70;;;13.43;;
26478;SDS011;14163;-26.142;27.992;2023-04-24T13:53:35;16.77;;;13.80;;
26478;SDS011;14163;-26.142;27.992;2023-04-24T13:56:04;34.87;;;25.57;;
26478;SDS011;14163;-26.142;27.992;2023-04-24T13:58:36;24.33;;;21.73;;
26478;SDS011;14163;-26.142;27.992;2023-04-24T14:01:06;16.20;;;14.50;;
26478;SDS011;14163;-26.142;27.992;2023-04-24T16:41:04;8.83;;;7.80;;
26478;SDS011;14163;-26.142;27.992;2023-04-24T16:43:33;12.80;;;8.63;;
26478;SDS011;14163;-26.142;27.992;2023-04-24T16:46:02;11.30;;;9.17;;
26478;SDS011;14163;-26.142;27.992;2023-04-24T16:48:32;10.17;;;7.80;;
26478;SDS011;14163;-26.142;27.992;2023-04-24T16:51:02;12.00;;;8.17;;
26478;SDS011;14163;-26.142;27.992;2023-04-24T16:53:31;14.03;;;9.03;;
26478;SDS011;14163;-26.142;27.992;2023-04-24T16:56:01;13.43;;;8.70;;
26478;SDS011;14163;-26.142;27.992;2023-04-24T16:58:33;12.25;;;8.40;;
26478;SDS011;14163;-26.142;27.992;2023-04-24T17:01:02;11.10;;;8.00;;
26478;SDS011;14163;-26.142;27.992;2023-04-24T17:03:31;12.70;;;9.17;;
26478;SDS011;14163;-26.142;27.992;2023-04-24T17:06:00;13.50;;;9.43;;
26478;SDS011;14163;-26.142;27.992;2023-04-24T17:08:29;13.70;;;9.07;;
26478;SDS011;14163;-26.142;27.992;2023-04-24T17:10:59;12.50;;;10.07;;
26478;SDS011;14163;-26.142;27.992;2023-04-24T17:13:29;10.90;;;9.53;;
26478;SDS011;14163;-26.142;27.992;2023-04-24T17:15:59;12.67;;;11.40;;
26478;SDS011;14163;-26.142;27.992;2023-04-24T17:18:28;18.93;;;12.60;;
26478;SDS011;14163;-26.142;27.992;2023-04-24T17:20:58;18.63;;;13.53;;
26478;SDS011;14163;-26.142;27.992;2023-04-24T17:23:27;13.77;;;12.33;;
26478;SDS011;14163;-26.142;27.992;2023-04-24T17:25:56;16.87;;;14.50;;
26478;SDS011;14163;-26.142;27.992;2023-04-24T17:28:27;16.57;;;13.07;;
26478;SDS011;14163;-26.142;27.992;2023-04-24T17:30:59;18.20;;;13.20;;
26478;SDS011;14163;-26.142;27.992;2023-04-24T17:33:29;18.17;;;12.83;;
26478;SDS011;14163;-26.142;27.992;2023-04-24T17:35:58;15.93;;;11.30;;
26478;SDS011;14163;-26.142;27.992;2023-04-24T17:38:28;14.40;;;11.20;;
26478;SDS011;14163;-26.142;27.992;2023-04-24T17:40:57;14.37;;;11.77;;
26478;SDS011;14163;-26.142;27.992;2023-04-24T17:43:26;16.77;;;13.07;;
26478;SDS011;14163;-26.142;27.992;2023-04-24T17:45:57;15.53;;;11.90;;
26478;SDS011;14163;-26.142;27.992;2023-04-24T17:48:27;16.10;;;12.30;;
26478;SDS011;14163;-26.142;27.992;2023-04-24T17:50:56;17.67;;;14.30;;
26478;SDS011;14163;-26.142;27.992;2023-04-24T17:53:25;19.30;;;14.73;;
26478;SDS011;14163;-26.142;27.992;2023-04-24T17:55:54;17.43;;;13.57;;
26478;SDS011;14163;-26.142;27.992;2023-04-24T17:58:26;23.70;;;14.20;;
26478;SDS011;14163;-26.142;27.992;2023-04-24T18:00:58;22.07;;;15.60;;
26478;SDS011;14163;-26.142;27.992;2023-04-24T18:03:27;18.30;;;15.67;;
26478;SDS011;14163;-26.142;27.992;2023-04-24T18:05:56;21.63;;;16.57;;
26478;SDS011;14163;-26.142;27.992;2023-04-24T18:08:25;21.43;;;15.70;;
26478;SDS011;14163;-26.142;27.992;2023-04-24T18:10:54;18.40;;;16.50;;
26478;SDS011;14163;-26.142;27.992;2023-04-24T18:13:24;20.17;;;16.03;;
26478;SDS011;14163;-26.142;27.992;2023-04-24T18:15:53;22.37;;;15.20;;
26478;SDS011;14163;-26.142;27.992;2023-04-24T18:18:24;18.10;;;16.00;;
26478;SDS011;14163;-26.142;27.992;2023-04-24T18:20:53;20.07;;;16.47;;
26478;SDS011;14163;-26.142;27.992;2023-04-24T18:23:23;18.33;;;16.43;;
26478;SDS011;14163;-26.142;27.992;2023-04-24T18:25:52;21.50;;;16.40;;
26478;SDS011;14163;-26.142;27.992;2023-04-24T18:28:21;19.47;;;17.00;;
26478;SDS011;14163;-26.142;27.992;2023-04-24T18:30:50;22.27;;;17.10;;
26478;SDS011;14163;-26.142;27.992;2023-04-24T18:33:19;19.20;;;16.50;;
26478;SDS011;14163;-26.142;27.992;2023-04-24T18:35:50;22.40;;;17.00;;
26478;SDS011;14163;-26.142;27.992;2023-04-24T18:38:20;21.00;;;16.80;;
26478;SDS011;14163;-26.142;27.992;2023-04-24T18:40:51;17.53;;;15.70;;
26478;SDS011;14163;-26.142;27.992;2023-04-24T18:43:20;20.50;;;17.20;;
26478;SDS011;14163;-26.142;27.992;2023-04-24T18:45:50;18.83;;;16.20;;
26478;SDS011;14163;-26.142;27.992;2023-04-24T18:48:20;24.37;;;17.73;;
26478;SDS011;14163;-26.142;27.992;2023-04-24T18:50:51;26.33;;;17.90;;
26478;SDS011;14163;-26.142;27.992;2023-04-24T18:53:21;28.87;;;19.77;;
26478;SDS011;14163;-26.142;27.992;2023-04-24T18:55:50;20.37;;;16.23;;
26478;SDS011;14163;-26.142;27.992;2023-04-24T18:58:20;24.37;;;18.20;;
26478;SDS011;14163;-26.142;27.992;2023-04-24T19:00:49;21.10;;;17.17;;
26478;SDS011;14163;-26.142;27.992;2023-04-24T19:03:18;23.67;;;17.80;;
26478;SDS011;14163;-26.142;27.992;2023-04-24T19:06:18;20.42;;;17.80;;
26478;SDS011;14163;-26.142;27.992;2023-04-24T19:08:47;22.80;;;18.57;;
26478;SDS011;14163;-26.142;27.992;2023-04-24T19:11:16;24.40;;;18.10;;
26478;SDS011;14163;-26.142;27.992;2023-04-24T19:13:46;19.30;;;17.23;;
26478;SDS011;14163;-26.142;27.992;2023-04-24T19:16:15;20.10;;;18.00;;
26478;SDS011;14163;-26.142;27.992;2023-04-24T19:18:44;21.23;;;18.80;;